Time;durP1;ratioP1;P1;durP2;ratioP2;P2;SDS_P1;SDS_P2;PMS_P1;PMS_P2;Temp;Humidity;BMP_temperature;BMP_pressure;BME280_temperature;BME280_humidity;BME280_pressure;Samples;Min_cycle;Max_cycle;Signal;HPM_P1;HPM_P2
2022/01/22 00:00:00;;;;;;;;;;;;;;;;;;1031437;28;898;-35
2022/01/22 00:00:30;;;;;;;;;;;;;;;;;;1031519;28;941;-38
2022/01/22 00:01:02;;;;;;;;;;;;;;;;;;1031463;28;926;-38
2022/01/22 00:01:32;;;;;;;;;;;;;;;;;;1031748;28;883;-37
2022/01/22 00:02:04;;;;;;;;;;;;;;;;;;1031373;28;812;-37
2022/01/22 00:02:34;;;;;;;;;;;;;;;;;;1031717;28;874;-36
2022/01/22 00:03:05;;;;;;;;;;;;;;;;;;1031475;28;757;-38
2022/01/22 00:03:36;;;;;;;;;;;;;;;;;;1031565;28;990;-38
2022/01/22 00:04:06;;;;;;;;;;;;;;;;;;1031474;28;851;-35
2022/01/22 00:04:36;;;;;;;;;;;;;;;;;;1031593;28;811;-38
2022/01/22 00:05:07;;;;;;;;;;;;;;;;;;1031422;28;812;-39
2022/01/22 00:05:38;;;;;;;;;;;;;;;;;;1031559;28;865;-39
2022/01/22 00:06:08;;;;;;;;;;;;;;;;;;1031392;28;938;-39
2022/01/22 00:06:39;;;;;;;;;;;;;;;;;;1031705;28;918;-37
2022/01/22 00:07:10;;;;;;;;;;;;;;;;;;1031384;28;867;-38
2022/01/22 00:07:41;;;;;;;;;;;;;;;;;;1031770;28;791;-37
2022/01/22 00:08:11;;;;;;;;;;;;;;;;;;1031444;28;970;-32
2022/01/22 00:08:41;;;;;;;;;;;;;;;;;;1031522;28;910;-37
2022/01/22 00:09:12;;;;;;;;;;;;;;;;;;1031548;28;926;-38
2022/01/22 00:09:50;;;;;;;;;;;;;;;;;;1031448;28;1664;-38
2022/01/22 00:10:23;;;;;;;;;;;;;;;;;;1031468;28;954;-39
2022/01/22 00:10:53;;;;;;;;;;;;;;;;;;1031433;28;978;-39
2022/01/22 00:11:29;;;;;;;;;;;;;;;;;;1031362;28;851;-39
2022/01/22 00:11:59;;;;;;;;;;;;;;;;;;1031581;28;918;-38
2022/01/22 00:12:44;;;;;;;;;;;;;;;;;;1031453;28;914;-38
2022/01/22 00:14:37;;;;;;;;;;;;;;;;;;1031657;28;872;-37
2022/01/22 00:15:09;;;;;;;;;;;;;;;;;;1031428;28;878;-39
2022/01/22 00:15:41;;;;;;;;;;;;;;;;;;1031572;28;830;-39
2022/01/22 00:16:12;;;;;;;;;;;;;;;;;;1031490;28;942;-37
2022/01/22 00:16:42;;;;;;;;;;;;;;;;;;1031475;28;779;-38
2022/01/22 00:17:12;;;;;;;;;;;;;;;;;;1031572;28;965;-38
2022/01/22 00:17:44;;;;;;;;;;;;;;;;;;1031365;28;877;-38
2022/01/22 00:18:14;;;;;;;;;;;;;;;;;;1031509;28;945;-37
2022/01/22 00:18:44;;;;;;;;;;;;;;;;;;1031639;28;933;-38
2022/01/22 00:19:15;;;;;;;;;;;;;;;;;;1031348;28;1972;-39
2022/01/22 00:19:45;;;;;;;;;;;;;;;;;;1031533;28;878;-39
2022/01/22 00:20:16;;;;;;;;;;;;;;;;;;1031376;28;874;-35
2022/01/22 00:20:47;;;;;;;;;;;;;;;;;;1031469;28;902;-37
2022/01/22 00:21:17;;;;;;;;;;;;;;;;;;1031448;28;870;-39
2022/01/22 00:21:48;;;;;;;;;;;;;;;;;;1031318;28;941;-39
2022/01/22 00:22:22;;;;;;;;;;;;;;;;;;1031455;28;831;-39
2022/01/22 00:22:53;;;;;;;;;;;;;;;;;;1031519;28;1600;-38
2022/01/22 00:23:26;;;;;;;;;;;;;;;;;;1031404;28;808;-39
2022/01/22 00:23:58;;;;;;;;;;;;;;;;;;1031481;28;997;-37
2022/01/22 00:24:37;;;;;;;;;;;;;;;;;;1031342;28;926;-36
2022/01/22 00:25:08;;;;;;;;;;;;;;;;;;1031520;28;890;-34
2022/01/22 00:25:39;;;;;;;;;;;;;;;;;;1031469;28;977;-39
2022/01/22 00:26:09;;;;;;;;;;;;;;;;;;1031349;28;1697;-39
2022/01/22 00:26:41;;;;;;;;;;;;;;;;;;1031566;28;945;-39
2022/01/22 00:27:11;;;;;;;;;;;;;;;;;;1031307;28;1067;-36
2022/01/22 00:27:43;;;;;;;;;;;;;;;;;;1031512;28;863;-39
2022/01/22 00:28:14;;;;;;;;;;;;;;;;;;1031263;28;1163;-39
2022/01/22 00:28:44;;;;;;;;;;;;;;;;;;1031475;28;895;-39
2022/01/22 00:29:16;;;;;;;;;;;;;;;;;;1031577;28;787;-39
2022/01/22 00:29:47;;;;;;;;;;;;;;;;;;1031398;28;942;-37
2022/01/22 00:30:21;;;;;;;;;;;;;;;;;;1031406;28;795;-38
2022/01/22 00:30:52;;;;;;;;;;;;;;;;;;1026961;28;705;-37
2022/01/22 00:31:22;;;;;;;;;;;;;;;;;;1027059;28;1171;-35
2022/01/22 00:31:52;;;;;;;;;;;;;;;;;;1027251;28;957;-37
2022/01/22 00:32:23;;;;;;;;;;;;;;;;;;1026852;28;792;-35
2022/01/22 00:32:54;;;;;;;;;;;;;;;;;;1031601;28;870;-37
2022/01/22 00:33:24;;;;;;;;;;;;;;;;;;1026897;28;894;-36
2022/01/22 00:33:55;;;;;;;;;;;;;;;;;;1027151;28;980;-38
2022/01/22 00:34:25;;;;;;;;;;;;;;;;;;1027002;28;847;-36
2022/01/22 00:34:55;;;;;;;;;;;;;;;;;;1027123;28;871;-38
2022/01/22 00:35:26;;;;;;;;;;;;;;;;;;1031499;28;880;-38
2022/01/22 00:35:56;;;;;;;;;;;;;;;;;;1031076;28;1170;-38
2022/01/22 00:36:26;;;;;;;;;;;;;;;;;;1030825;28;1414;-38
2022/01/22 00:36:57;;;;;;;;;;;;;;;;;;1031269;28;1001;-37
2022/01/22 00:37:27;;;;;;;;;;;;;;;;;;1027000;28;946;-39
2022/01/22 00:37:59;;;;;;;;;;;;;;;;;;1027111;28;918;-38
2022/01/22 00:38:30;;;;;;;;;;;;;;;;;;1027049;28;842;-38
2022/01/22 00:39:00;;;;;;;;;;;;;;;;;;1027366;28;1969;-36
2022/01/22 00:39:31;;;;;;;;;;;;;;;;;;1035167;28;1310;-38
2022/01/22 00:40:03;;;;;;;;;;;;;;;;;;1034972;28;930;-37
2022/01/22 00:40:34;;;;;;;;;;;;;;;;;;1035082;28;885;-38
2022/01/22 00:41:06;;;;;;;;;;;;;;;;;;1034553;28;819;-36
2022/01/22 00:41:36;;;;;;;;;;;;;;;;;;1031398;28;981;-39
2022/01/22 00:42:14;;;;;;;;;;;;;;;;;;1031342;28;883;-39
2022/01/22 00:42:45;;;;;;;;;;;;;;;;;;1034873;28;969;-38
2022/01/22 00:43:15;;;;;;;;;;;;;;;;;;1035191;28;886;-37
2022/01/22 00:43:46;;;;;;;;;;;;;;;;;;1035110;28;925;-38
2022/01/22 00:44:17;;;;;;;;;;;;;;;;;;1034774;28;1161;-36
2022/01/22 00:44:51;;;;;;;;;;;;;;;;;;1031034;28;851;-36
2022/01/22 00:45:21;;;;;;;;;;;;;;;;;;1031001;28;871;-36
2022/01/22 00:45:51;;;;;;;;;;;;;;;;;;1031179;28;858;-38
2022/01/22 00:46:22;;;;;;;;;;;;;;;;;;1031383;28;803;-38
2022/01/22 00:46:52;;;;;;;;;;;;;;;;;;1034919;28;910;-38
2022/01/22 00:47:23;;;;;;;;;;;;;;;;;;1035075;28;922;-39
2022/01/22 00:47:53;;;;;;;;;;;;;;;;;;1035201;28;787;-36
2022/01/22 00:48:23;;;;;;;;;;;;;;;;;;1030909;28;1388;-38
2022/01/22 00:48:54;;;;;;;;;;;;;;;;;;1027085;28;1206;-38
2022/01/22 00:49:24;;;;;;;;;;;;;;;;;;1026968;28;938;-36
2022/01/22 00:49:55;;;;;;;;;;;;;;;;;;1027167;28;922;-36
2022/01/22 00:50:26;;;;;;;;;;;;;;;;;;1027389;28;885;-36
2022/01/22 00:50:57;;;;;;;;;;;;;;;;;;1027227;28;922;-36
2022/01/22 00:51:28;;;;;;;;;;;;;;;;;;1027454;28;830;-38
2022/01/22 00:51:58;;;;;;;;;;;;;;;;;;1031001;28;938;-39
2022/01/22 00:52:28;;;;;;;;;;;;;;;;;;1031045;28;803;-38
2022/01/22 00:53:00;;;;;;;;;;;;;;;;;;1031168;28;807;-38
2022/01/22 00:53:32;;;;;;;;;;;;;;;;;;1030685;28;914;-37
2022/01/22 00:54:02;;;;;;;;;;;;;;;;;;1031006;28;874;-37
2022/01/22 00:54:32;;;;;;;;;;;;;;;;;;1031106;28;934;-39
2022/01/22 00:55:03;;;;;;;;;;;;;;;;;;1031085;28;871;-38
2022/01/22 00:55:33;;;;;;;;;;;;;;;;;;1031112;28;862;-37
2022/01/22 00:56:04;;;;;;;;;;;;;;;;;;1030783;28;1554;-36
2022/01/22 00:56:35;;;;;;;;;;;;;;;;;;1031160;28;1219;-36
2022/01/22 00:57:06;;;;;;;;;;;;;;;;;;1031044;28;945;-37
2022/01/22 00:57:36;;;;;;;;;;;;;;;;;;1030949;28;886;-38
2022/01/22 00:58:07;;;;;;;;;;;;;;;;;;1030746;28;1257;-38
2022/01/22 00:58:38;;;;;;;;;;;;;;;;;;1027360;28;862;-38
2022/01/22 00:59:08;;;;;;;;;;;;;;;;;;1027046;28;1978;-37
2022/01/22 00:59:39;;;;;;;;;;;;;;;;;;1026907;28;827;-35
2022/01/22 01:00:11;;;;;;;;;;;;;;;;;;1022897;28;852;-37
2022/01/22 01:00:42;;;;;;;;;;;;;;;;;;1023440;28;812;-38
2022/01/22 01:01:13;;;;;;;;;;;;;;;;;;1022925;29;1193;-37
2022/01/22 01:01:43;;;;;;;;;;;;;;;;;;1023416;28;792;-37
2022/01/22 01:02:14;;;;;;;;;;;;;;;;;;1023067;28;793;-38
2022/01/22 01:02:45;;;;;;;;;;;;;;;;;;1022976;28;875;-38
2022/01/22 01:03:15;;;;;;;;;;;;;;;;;;1027105;28;844;-37
2022/01/22 01:03:45;;;;;;;;;;;;;;;;;;1026972;28;1176;-36
2022/01/22 01:04:16;;;;;;;;;;;;;;;;;;1031010;28;823;-35
2022/01/22 01:04:46;;;;;;;;;;;;;;;;;;1031097;28;937;-37
2022/01/22 01:05:16;;;;;;;;;;;;;;;;;;1031034;28;970;-37
2022/01/22 01:05:47;;;;;;;;;;;;;;;;;;1027369;28;831;-37
2022/01/22 01:06:18;;;;;;;;;;;;;;;;;;1026918;28;1153;-38
2022/01/22 01:06:48;;;;;;;;;;;;;;;;;;1027042;28;887;-37
2022/01/22 01:07:18;;;;;;;;;;;;;;;;;;1023087;28;864;-35
2022/01/22 01:07:49;;;;;;;;;;;;;;;;;;1022972;28;958;-38
2022/01/22 01:08:19;;;;;;;;;;;;;;;;;;1026964;28;870;-35
2022/01/22 01:08:50;;;;;;;;;;;;;;;;;;1027057;28;1168;-38
2022/01/22 01:09:20;;;;;;;;;;;;;;;;;;1030904;28;858;-35
2022/01/22 01:09:51;;;;;;;;;;;;;;;;;;1031041;28;1321;-38
2022/01/22 01:10:21;;;;;;;;;;;;;;;;;;1030906;28;787;-36
2022/01/22 01:10:54;;;;;;;;;;;;;;;;;;1026837;28;1347;-38
2022/01/22 01:11:27;;;;;;;;;;;;;;;;;;1026965;28;1168;-36
2022/01/22 01:12:02;;;;;;;;;;;;;;;;;;1030872;28;878;-36
2022/01/22 01:12:33;;;;;;;;;;;;;;;;;;1028046;28;1133;-38
2022/01/22 01:13:05;;;;;;;;;;;;;;;;;;1031063;28;985;-38
2022/01/22 01:13:41;;;;;;;;;;;;;;;;;;1026082;28;1311;-36
2022/01/22 01:14:18;;;;;;;;;;;;;;;;;;1024023;28;1276;-36
2022/01/22 01:32:52;;;;;;;;;;;;;;;;;;1031781;28;1296;-36
2022/01/22 01:34:11;;;;;;;;;;;;;;;;;;1030794;28;1274;-38
2022/01/22 01:34:20;;;;;;;;;;;;;;;;;;1026525;28;1313;-37
2022/01/22 01:34:51;;;;;;;;;;;;;;;;;;1026980;28;839;-38
2022/01/22 01:35:22;;;;;;;;;;;;;;;;;;1030699;28;969;-36
2022/01/22 01:35:52;;;;;;;;;;;;;;;;;;1029537;28;1094;-36
2022/01/22 01:36:23;;;;;;;;;;;;;;;;;;1026913;28;1434;-38
2022/01/22 01:36:54;;;;;;;;;;;;;;;;;;1022919;29;1241;-38
2022/01/22 01:37:24;;;;;;;;;;;;;;;;;;1022904;29;933;-38
2022/01/22 01:37:58;;;;;;;;;;;;;;;;;;1022993;28;1392;-35
2022/01/22 01:38:29;;;;;;;;;;;;;;;;;;1019362;29;1261;-38
2022/01/22 01:39:01;;;;;;;;;;;;;;;;;;1026894;28;2271;-37
2022/01/22 01:39:32;;;;;;;;;;;;;;;;;;1026840;28;1425;-35
2022/01/22 01:40:06;;;;;;;;;;;;;;;;;;1027406;28;1221;-37
2022/01/22 01:40:41;;;;;;;;;;;;;;;;;;1030201;28;847;-38
2022/01/22 01:41:22;;;;;;;;;;;;;;;;;;1028016;28;954;-35
2022/01/22 01:42:08;;;;;;;;;;;;;;;;;;1026937;28;1161;-36
2022/01/22 01:42:48;;;;;;;;;;;;;;;;;;1022811;29;1230;-38
2022/01/22 01:43:25;;;;;;;;;;;;;;;;;;1027010;28;1179;-37
2022/01/22 01:44:15;;;;;;;;;;;;;;;;;;1031456;28;1067;-38
2022/01/22 01:44:56;;;;;;;;;;;;;;;;;;1034588;28;791;-38
2022/01/22 01:45:34;;;;;;;;;;;;;;;;;;1026649;28;1481;-38
2022/01/22 01:46:05;;;;;;;;;;;;;;;;;;1027463;28;887;-38
2022/01/22 01:46:42;;;;;;;;;;;;;;;;;;1027067;28;689;-38
2022/01/22 01:47:15;;;;;;;;;;;;;;;;;;1024301;28;1168;-35
2022/01/22 01:47:52;;;;;;;;;;;;;;;;;;1031104;28;1298;-36
2022/01/22 01:48:28;;;;;;;;;;;;;;;;;;1027216;28;1349;-37
2022/01/22 01:48:59;;;;;;;;;;;;;;;;;;1023007;29;1166;-39
2022/01/22 01:49:30;;;;;;;;;;;;;;;;;;1026878;28;1218;-36
2022/01/22 01:50:01;;;;;;;;;;;;;;;;;;1027663;28;1231;-38
2022/01/22 01:50:39;;;;;;;;;;;;;;;;;;1027848;28;1423;-37
2022/01/22 01:51:11;;;;;;;;;;;;;;;;;;1029572;28;867;-38
2022/01/22 01:51:42;;;;;;;;;;;;;;;;;;1022857;28;1162;-38
2022/01/22 01:52:18;;;;;;;;;;;;;;;;;;1023197;29;1134;-36
2022/01/22 01:53:04;;;;;;;;;;;;;;;;;;1027596;28;1437;-36
2022/01/22 01:53:58;;;;;;;;;;;;;;;;;;1026586;28;1491;-36
2022/01/22 01:55:21;;;;;;;;;;;;;;;;;;1028868;28;1398;-39
2022/01/22 01:57:38;;;;;;;;;;;;;;;;;;1023563;29;1206;-34
2022/01/22 01:58:09;;;;;;;;;;;;;;;;;;1032119;28;1279;-38
2022/01/22 01:58:42;;;;;;;;;;;;;;;;;;1031499;28;1349;-38
2022/01/22 01:59:13;;;;;;;;;;;;;;;;;;1027738;28;1906;-39
2022/01/22 01:59:45;;;;;;;;;;;;;;;;;;1023101;29;1182;-39
2022/01/22 02:00:22;;;;;;;;;;;;;;;;;;1020704;29;1108;-38
2022/01/22 02:01:00;;;;;;;;;;;;;;;;;;1029287;28;1692;-39
2022/01/22 02:01:30;;;;;;;;;;;;;;;;;;1029840;28;1017;-39
2022/01/22 02:02:01;;;;;;;;;;;;;;;;;;1027471;28;1225;-36
2022/01/22 02:02:34;;;;;;;;;;;;;;;;;;1023024;29;1005;-39
2022/01/22 02:03:05;;;;;;;;;;;;;;;;;;1019678;29;1189;-38
2022/01/22 02:03:40;;;;;;;;;;;;;;;;;;1020756;29;2222;-36
2022/01/22 02:04:20;;;;;;;;;;;;;;;;;;1021574;29;839;-38
2022/01/22 02:04:50;;;;;;;;;;;;;;;;;;1021678;29;1524;-38
2022/01/22 02:05:23;;;;;;;;;;;;;;;;;;1019534;29;867;-38
2022/01/22 02:05:56;;;;;;;;;;;;;;;;;;1024276;28;1512;-38
2022/01/22 02:06:28;;;;;;;;;;;;;;;;;;1027582;28;1401;-38
2022/01/22 02:06:58;;;;;;;;;;;;;;;;;;1028517;28;815;-36
2022/01/22 02:07:33;;;;;;;;;;;;;;;;;;1027684;28;1206;-36
2022/01/22 02:08:13;;;;;;;;;;;;;;;;;;1023460;28;1409;-36
2022/01/22 02:08:52;;;;;;;;;;;;;;;;;;1023629;29;926;-34
2022/01/22 02:09:27;;;;;;;;;;;;;;;;;;1022880;29;1449;-34
2022/01/22 02:09:59;;;;;;;;;;;;;;;;;;1021443;29;824;-38
2022/01/22 02:10:36;;;;;;;;;;;;;;;;;;1019703;29;1166;-38
2022/01/22 02:11:09;;;;;;;;;;;;;;;;;;1020709;29;1359;-38
2022/01/22 02:12:16;;;;;;;;;;;;;;;;;;1015286;29;1202;-39
2022/01/22 02:13:43;;;;;;;;;;;;;;;;;;1027394;28;1441;-38
2022/01/22 02:23:50;;;;;;;;;;;;;;;;;;1028554;28;1529;-38
2022/01/22 02:24:20;;;;;;;;;;;;;;;;;;1027268;28;1283;-38
2022/01/22 02:24:52;;;;;;;;;;;;;;;;;;1027643;28;1163;-37
2022/01/22 02:25:23;;;;;;;;;;;;;;;;;;1027653;28;855;-39
2022/01/22 02:25:56;;;;;;;;;;;;;;;;;;1031484;28;1444;-38
2022/01/22 02:26:30;;;;;;;;;;;;;;;;;;1032579;28;921;-39
2022/01/22 02:27:01;;;;;;;;;;;;;;;;;;1031188;28;1261;-39
2022/01/22 02:27:38;;;;;;;;;;;;;;;;;;1025773;28;1422;-39
2022/01/22 02:28:13;;;;;;;;;;;;;;;;;;1027486;28;977;-38
2022/01/22 02:28:49;;;;;;;;;;;;;;;;;;1029297;28;811;-39
2022/01/22 02:29:19;;;;;;;;;;;;;;;;;;1032997;28;845;-38
2022/01/22 02:30:09;;;;;;;;;;;;;;;;;;1031842;28;1225;-37
2022/01/22 02:31:09;;;;;;;;;;;;;;;;;;1031609;28;622;-39
2022/01/22 02:31:57;;;;;;;;;;;;;;;;;;1031212;28;1202;-37
2022/01/22 02:33:02;;;;;;;;;;;;;;;;;;1027608;28;1330;-39
2022/01/22 02:34:00;;;;;;;;;;;;;;;;;;1030045;28;764;-38
2022/01/22 02:34:41;;;;;;;;;;;;;;;;;;1027475;28;1521;-38
2022/01/22 02:35:28;;;;;;;;;;;;;;;;;;1027525;28;1375;-39
2022/01/22 02:36:16;;;;;;;;;;;;;;;;;;1027482;28;973;-38
2022/01/22 02:37:04;;;;;;;;;;;;;;;;;;1031484;28;1260;-35
2022/01/22 02:37:39;;;;;;;;;;;;;;;;;;1027537;28;1174;-38
2022/01/22 02:38:18;;;;;;;;;;;;;;;;;;1027359;28;1334;-38
2022/01/22 02:39:24;;;;;;;;;;;;;;;;;;1023466;29;1968;-39
2022/01/22 02:40:10;;;;;;;;;;;;;;;;;;1025426;28;840;-38
2022/01/22 02:40:47;;;;;;;;;;;;;;;;;;1031394;28;1384;-39
2022/01/22 02:41:20;;;;;;;;;;;;;;;;;;1027361;28;1249;-35
2022/01/22 02:41:52;;;;;;;;;;;;;;;;;;1027556;28;1657;-38
2022/01/22 02:42:26;;;;;;;;;;;;;;;;;;1025829;28;930;-36
2022/01/22 02:43:00;;;;;;;;;;;;;;;;;;1024944;28;910;-38
2022/01/22 02:43:32;;;;;;;;;;;;;;;;;;1031487;28;1341;-38
2022/01/22 02:44:02;;;;;;;;;;;;;;;;;;1031535;28;953;-37
2022/01/22 02:44:44;;;;;;;;;;;;;;;;;;1027361;28;1169;-39
2022/01/22 02:45:20;;;;;;;;;;;;;;;;;;1021593;29;1655;-37
2022/01/22 02:45:51;;;;;;;;;;;;;;;;;;1019636;29;1443;-38
2022/01/22 02:46:25;;;;;;;;;;;;;;;;;;1021656;29;784;-37
2022/01/22 02:46:56;;;;;;;;;;;;;;;;;;1028609;28;1505;-38
2022/01/22 02:47:26;;;;;;;;;;;;;;;;;;1027447;28;1312;-39
2022/01/22 02:47:57;;;;;;;;;;;;;;;;;;1023432;29;1139;-39
2022/01/22 02:48:27;;;;;;;;;;;;;;;;;;1023385;29;1452;-39
2022/01/22 02:48:57;;;;;;;;;;;;;;;;;;1022223;29;1270;-39
2022/01/22 02:49:28;;;;;;;;;;;;;;;;;;1019495;29;1349;-38
2022/01/22 02:49:58;;;;;;;;;;;;;;;;;;1023493;28;858;-35
2022/01/22 02:50:28;;;;;;;;;;;;;;;;;;1031459;28;1178;-39
2022/01/22 02:50:59;;;;;;;;;;;;;;;;;;1027241;28;1230;-38
2022/01/22 02:51:29;;;;;;;;;;;;;;;;;;1031526;28;854;-39
2022/01/22 02:52:07;;;;;;;;;;;;;;;;;;1030883;28;1135;-38
2022/01/22 02:52:37;;;;;;;;;;;;;;;;;;1028353;28;939;-38
2022/01/22 02:53:10;;;;;;;;;;;;;;;;;;1031556;28;788;-39
2022/01/22 02:53:40;;;;;;;;;;;;;;;;;;1026694;28;1312;-39
2022/01/22 02:54:11;;;;;;;;;;;;;;;;;;1027258;28;1236;-39
2022/01/22 02:54:42;;;;;;;;;;;;;;;;;;1027468;28;1275;-38
2022/01/22 02:55:13;;;;;;;;;;;;;;;;;;1027475;28;812;-37
2022/01/22 02:55:45;;;;;;;;;;;;;;;;;;1027516;28;1220;-37
2022/01/22 02:56:16;;;;;;;;;;;;;;;;;;1023272;29;1217;-35
2022/01/22 02:56:47;;;;;;;;;;;;;;;;;;1023558;29;780;-39
2022/01/22 02:57:17;;;;;;;;;;;;;;;;;;1023556;28;859;-38
2022/01/22 02:57:53;;;;;;;;;;;;;;;;;;1024168;28;1356;-39
2022/01/22 02:58:24;;;;;;;;;;;;;;;;;;1027296;28;1149;-39
2022/01/22 02:58:56;;;;;;;;;;;;;;;;;;1023436;29;1317;-38
2022/01/22 02:59:26;;;;;;;;;;;;;;;;;;1023185;29;1914;-37
2022/01/22 02:59:59;;;;;;;;;;;;;;;;;;1023321;29;1296;-36
2022/01/22 03:00:31;;;;;;;;;;;;;;;;;;1019886;29;1185;-39
2022/01/22 03:01:01;;;;;;;;;;;;;;;;;;1023806;28;859;-38
2022/01/22 03:01:32;;;;;;;;;;;;;;;;;;1023419;29;1348;-39
2022/01/22 03:02:03;;;;;;;;;;;;;;;;;;1023749;28;807;-38
2022/01/22 03:02:34;;;;;;;;;;;;;;;;;;1027370;28;1192;-37
2022/01/22 03:03:06;;;;;;;;;;;;;;;;;;1031601;28;1213;-38
2022/01/22 03:03:38;;;;;;;;;;;;;;;;;;1030574;28;1134;-38
2022/01/22 03:04:08;;;;;;;;;;;;;;;;;;1027023;28;1287;-33
2022/01/22 03:04:38;;;;;;;;;;;;;;;;;;1022867;29;1164;-39
2022/01/22 03:05:09;;;;;;;;;;;;;;;;;;1019635;29;1363;-39
2022/01/22 03:05:40;;;;;;;;;;;;;;;;;;1019468;29;638;-39
2022/01/22 03:06:10;;;;;;;;;;;;;;;;;;1019392;29;862;-36
2022/01/22 03:06:40;;;;;;;;;;;;;;;;;;1023430;29;828;-37
2022/01/22 03:07:11;;;;;;;;;;;;;;;;;;1023585;28;958;-38
2022/01/22 03:07:44;;;;;;;;;;;;;;;;;;1023024;28;1293;-37
2022/01/22 03:08:15;;;;;;;;;;;;;;;;;;1027493;28;934;-38
2022/01/22 03:08:47;;;;;;;;;;;;;;;;;;1031308;28;779;-36
2022/01/22 03:09:25;;;;;;;;;;;;;;;;;;1031989;28;938;-37
2022/01/22 03:10:01;;;;;;;;;;;;;;;;;;1035344;28;986;-33
2022/01/22 03:10:31;;;;;;;;;;;;;;;;;;1031847;28;925;-36
2022/01/22 03:11:06;;;;;;;;;;;;;;;;;;1027670;28;926;-36
2022/01/22 03:16:04;;;;;;;;;;;;;;;;;;1031312;28;843;-39
2022/01/22 03:16:52;;;;;;;;;;;;;;;;;;1027141;28;1300;-38
2022/01/22 03:17:48;;;;;;;;;;;;;;;;;;1027494;28;858;-36
2022/01/22 03:18:32;;;;;;;;;;;;;;;;;;1027519;28;875;-36
2022/01/22 03:19:10;;;;;;;;;;;;;;;;;;1027756;28;1987;-39
2022/01/22 03:20:00;;;;;;;;;;;;;;;;;;1027675;28;875;-39
2022/01/22 03:21:00;;;;;;;;;;;;;;;;;;1031175;28;1689;-38
2022/01/22 03:21:53;;;;;;;;;;;;;;;;;;1031430;28;997;-38
2022/01/22 03:22:53;;;;;;;;;;;;;;;;;;1028743;28;962;-36
2022/01/22 03:27:28;;;;;;;;;;;;;;;;;;1027170;28;1180;-39
2022/01/22 03:27:59;;;;;;;;;;;;;;;;;;1027323;28;1293;-37
2022/01/22 03:28:39;;;;;;;;;;;;;;;;;;1030087;28;819;-38
2022/01/22 03:29:16;;;;;;;;;;;;;;;;;;1027461;28;1348;-39
2022/01/22 03:29:46;;;;;;;;;;;;;;;;;;1027263;28;942;-38
2022/01/22 03:30:17;;;;;;;;;;;;;;;;;;1027438;28;923;-39
2022/01/22 03:30:47;;;;;;;;;;;;;;;;;;1028160;28;776;-36
2022/01/22 03:31:18;;;;;;;;;;;;;;;;;;1035227;28;1708;-37
2022/01/22 03:31:49;;;;;;;;;;;;;;;;;;1035444;28;934;-38
2022/01/22 03:32:20;;;;;;;;;;;;;;;;;;1035374;28;875;-36
2022/01/22 03:32:53;;;;;;;;;;;;;;;;;;1031047;28;1546;-36
2022/01/22 03:33:25;;;;;;;;;;;;;;;;;;1027403;28;1390;-38
2022/01/22 03:33:55;;;;;;;;;;;;;;;;;;1027159;28;918;-38
2022/01/22 03:34:28;;;;;;;;;;;;;;;;;;1028056;28;864;-37
2022/01/22 03:35:11;;;;;;;;;;;;;;;;;;1030943;28;784;-38
2022/01/22 03:35:45;;;;;;;;;;;;;;;;;;1027585;28;996;-39
2022/01/22 03:36:16;;;;;;;;;;;;;;;;;;1027176;28;1158;-38
2022/01/22 03:36:46;;;;;;;;;;;;;;;;;;1023252;28;1181;-39
2022/01/22 03:37:17;;;;;;;;;;;;;;;;;;1023316;29;1329;-37
2022/01/22 03:37:51;;;;;;;;;;;;;;;;;;1023072;28;1255;-37
2022/01/22 03:38:23;;;;;;;;;;;;;;;;;;1027380;28;827;-38
2022/01/22 03:38:53;;;;;;;;;;;;;;;;;;1023148;29;855;-36
2022/01/22 03:39:24;;;;;;;;;;;;;;;;;;1024042;28;1906;-39
2022/01/22 03:39:55;;;;;;;;;;;;;;;;;;1027287;28;831;-38
2022/01/22 03:40:26;;;;;;;;;;;;;;;;;;1027324;28;1466;-39
2022/01/22 03:40:56;;;;;;;;;;;;;;;;;;1030541;28;1173;-38
2022/01/22 03:41:27;;;;;;;;;;;;;;;;;;1027290;28;1213;-33
2022/01/22 03:42:00;;;;;;;;;;;;;;;;;;1022554;28;1301;-36
2022/01/22 03:42:30;;;;;;;;;;;;;;;;;;1019288;29;847;-38
2022/01/22 03:43:01;;;;;;;;;;;;;;;;;;1023563;28;803;-36
2022/01/22 03:43:31;;;;;;;;;;;;;;;;;;1027177;28;1149;-35
2022/01/22 03:44:05;;;;;;;;;;;;;;;;;;1027254;28;1340;-35
2022/01/22 03:44:35;;;;;;;;;;;;;;;;;;1023041;29;1162;-36
2022/01/22 03:45:07;;;;;;;;;;;;;;;;;;1019359;29;1289;-37
2022/01/22 03:45:38;;;;;;;;;;;;;;;;;;1023334;28;1020;-36
2022/01/22 03:46:08;;;;;;;;;;;;;;;;;;1027203;28;1464;-39
2022/01/22 03:46:41;;;;;;;;;;;;;;;;;;1023342;28;1172;-35
2022/01/22 03:47:12;;;;;;;;;;;;;;;;;;1026599;28;1449;-39
2022/01/22 03:47:43;;;;;;;;;;;;;;;;;;1023062;29;1244;-37
2022/01/22 03:48:13;;;;;;;;;;;;;;;;;;1023642;28;802;-37
2022/01/22 03:48:44;;;;;;;;;;;;;;;;;;1027122;28;1266;-37
2022/01/22 03:49:16;;;;;;;;;;;;;;;;;;1023275;28;1189;-37
2022/01/22 03:49:46;;;;;;;;;;;;;;;;;;1026976;28;1162;-39
2022/01/22 03:50:20;;;;;;;;;;;;;;;;;;1027175;28;1302;-37
2022/01/22 03:50:53;;;;;;;;;;;;;;;;;;1032036;28;1196;-36
2022/01/22 03:51:24;;;;;;;;;;;;;;;;;;1035329;28;827;-37
2022/01/22 03:51:55;;;;;;;;;;;;;;;;;;1031034;28;1153;-36
2022/01/22 03:52:26;;;;;;;;;;;;;;;;;;1026975;28;911;-34
2022/01/22 03:52:56;;;;;;;;;;;;;;;;;;1019092;29;1278;-34
2022/01/22 03:53:27;;;;;;;;;;;;;;;;;;1019410;29;1596;-37
2022/01/22 03:53:58;;;;;;;;;;;;;;;;;;1023057;28;831;-38
2022/01/22 03:54:28;;;;;;;;;;;;;;;;;;1023318;29;1158;-35
2022/01/22 03:54:59;;;;;;;;;;;;;;;;;;1023111;28;954;-39
2022/01/22 03:56:03;;;;;;;;;;;;;;;;;;1027105;28;1068;-36
2022/01/22 03:56:33;;;;;;;;;;;;;;;;;;1031468;28;630;-39
2022/01/22 03:57:18;;;;;;;;;;;;;;;;;;1027190;28;1325;-39
2022/01/22 03:57:52;;;;;;;;;;;;;;;;;;1030783;28;1695;-38
2022/01/22 03:58:23;;;;;;;;;;;;;;;;;;1027163;28;1169;-39
2022/01/22 03:59:02;;;;;;;;;;;;;;;;;;1028887;28;1337;-36
2022/01/22 03:59:55;;;;;;;;;;;;;;;;;;1026387;28;1033;-38
2022/01/22 04:00:38;;;;;;;;;;;;;;;;;;1027763;28;804;-37
2022/01/22 04:02:46;;;;;;;;;;;;;;;;;;1026690;28;1342;-39
2022/01/22 04:04:08;;;;;;;;;;;;;;;;;;1014197;29;1434;-39
2022/01/22 04:04:43;;;;;;;;;;;;;;;;;;1023640;28;1535;-35
2022/01/22 04:05:15;;;;;;;;;;;;;;;;;;1026949;28;1759;-37
2022/01/22 04:06:52;;;;;;;;;;;;;;;;;;1027163;28;850;-36
2022/01/22 04:08:01;;;;;;;;;;;;;;;;;;1027162;28;898;-37
2022/01/22 04:08:21;;;;;;;;;;;;;;;;;;1027063;28;1365;-37
2022/01/22 04:08:55;;;;;;;;;;;;;;;;;;1022981;29;1463;-36
2022/01/22 04:09:28;;;;;;;;;;;;;;;;;;1027049;28;1640;-39
2022/01/22 04:10:01;;;;;;;;;;;;;;;;;;1027039;28;819;-37
2022/01/22 04:10:34;;;;;;;;;;;;;;;;;;1026952;28;831;-37
2022/01/22 04:11:09;;;;;;;;;;;;;;;;;;1028246;28;830;-38
2022/01/22 04:11:42;;;;;;;;;;;;;;;;;;1031467;28;716;-36
2022/01/22 04:12:16;;;;;;;;;;;;;;;;;;1031613;28;941;-38
2022/01/22 04:12:52;;;;;;;;;;;;;;;;;;1031363;28;926;-38
2022/01/22 04:13:30;;;;;;;;;;;;;;;;;;1031070;28;815;-37
2022/01/22 04:14:03;;;;;;;;;;;;;;;;;;1031094;28;989;-37
2022/01/22 04:14:36;;;;;;;;;;;;;;;;;;1031060;28;953;-39
2022/01/22 04:15:07;;;;;;;;;;;;;;;;;;1030963;28;938;-38
2022/01/22 04:15:40;;;;;;;;;;;;;;;;;;1031336;28;798;-36
2022/01/22 04:16:13;;;;;;;;;;;;;;;;;;1031541;28;842;-36
2022/01/22 04:17:00;;;;;;;;;;;;;;;;;;1031053;28;1168;-37
2022/01/22 04:24:53;;;;;;;;;;;;;;;;;;1027083;28;796;-39
2022/01/22 04:25:26;;;;;;;;;;;;;;;;;;1027926;28;855;-38
2022/01/22 04:26:05;;;;;;;;;;;;;;;;;;1031376;28;835;-38
2022/01/22 04:26:43;;;;;;;;;;;;;;;;;;1031406;28;772;-39
2022/01/22 04:27:20;;;;;;;;;;;;;;;;;;1031217;28;1204;-37
2022/01/22 04:27:53;;;;;;;;;;;;;;;;;;1031269;28;823;-38
2022/01/22 04:28:24;;;;;;;;;;;;;;;;;;1031278;28;909;-39
2022/01/22 04:28:54;;;;;;;;;;;;;;;;;;1030930;28;969;-33
2022/01/22 04:29:25;;;;;;;;;;;;;;;;;;1031231;28;886;-36
2022/01/22 04:29:58;;;;;;;;;;;;;;;;;;1030962;28;850;-37
2022/01/22 04:30:28;;;;;;;;;;;;;;;;;;1031546;28;988;-38
2022/01/22 04:30:58;;;;;;;;;;;;;;;;;;1031345;28;985;-39
2022/01/22 04:31:29;;;;;;;;;;;;;;;;;;1031342;28;870;-35
2022/01/22 04:31:59;;;;;;;;;;;;;;;;;;1031398;28;950;-36
2022/01/22 04:32:31;;;;;;;;;;;;;;;;;;1031603;28;823;-37
2022/01/22 04:33:04;;;;;;;;;;;;;;;;;;1031293;28;855;-38
2022/01/22 04:33:35;;;;;;;;;;;;;;;;;;1031267;28;930;-36
2022/01/22 04:34:05;;;;;;;;;;;;;;;;;;1031368;28;1010;-37
2022/01/22 04:34:35;;;;;;;;;;;;;;;;;;1031403;28;847;-36
2022/01/22 04:35:06;;;;;;;;;;;;;;;;;;1031477;28;962;-36
2022/01/22 04:35:37;;;;;;;;;;;;;;;;;;1031193;28;827;-38
2022/01/22 04:36:10;;;;;;;;;;;;;;;;;;1031499;28;851;-37
2022/01/22 04:36:41;;;;;;;;;;;;;;;;;;1031387;28;1153;-35
2022/01/22 04:37:12;;;;;;;;;;;;;;;;;;1031470;28;942;-36
2022/01/22 04:37:42;;;;;;;;;;;;;;;;;;1031394;28;779;-38
2022/01/22 04:38:12;;;;;;;;;;;;;;;;;;1031098;28;1017;-37
2022/01/22 04:38:43;;;;;;;;;;;;;;;;;;1031502;28;957;-38
2022/01/22 04:39:13;;;;;;;;;;;;;;;;;;1031327;28;1993;-38
2022/01/22 04:39:45;;;;;;;;;;;;;;;;;;1031365;28;996;-38
2022/01/22 04:40:16;;;;;;;;;;;;;;;;;;1031309;28;803;-36
2022/01/22 04:40:47;;;;;;;;;;;;;;;;;;1031403;28;858;-35
2022/01/22 04:41:19;;;;;;;;;;;;;;;;;;1031219;28;1010;-38
2022/01/22 04:41:52;;;;;;;;;;;;;;;;;;1026879;28;2160;-39
2022/01/22 04:42:24;;;;;;;;;;;;;;;;;;1023068;29;1175;-36
2022/01/22 04:42:55;;;;;;;;;;;;;;;;;;1022835;29;1401;-37
2022/01/22 04:43:27;;;;;;;;;;;;;;;;;;1023633;28;935;-38
2022/01/22 04:44:01;;;;;;;;;;;;;;;;;;1027480;28;886;-37
2022/01/22 04:44:39;;;;;;;;;;;;;;;;;;1035024;28;1476;-38
2022/01/22 04:45:23;;;;;;;;;;;;;;;;;;1035099;28;1161;-34
2022/01/22 04:47:20;;;;;;;;;;;;;;;;;;1026863;28;1314;-37
2022/01/22 04:48:07;;;;;;;;;;;;;;;;;;1034442;28;1261;-35
2022/01/22 04:55:18;;;;;;;;;;;;;;;;;;1027626;28;1005;-38